Time;durP1;ratioP1;P1;durP2;ratioP2;P2;SDS_P1;SDS_P2;PMS_P1;PMS_P2;Temp;Humidity;BMP_temperature;BMP_pressure;BME280_temperature;BME280_humidity;BME280_pressure;Samples;Min_cycle;Max_cycle;Signal;HPM_P1;HPM_P2
2021/05/17 00:01:33;;;;;;;18.43;14.57;;;;;;;9.43;79.54;97850.39;124785;1104;64256;-83
2021/05/17 00:04:03;;;;;;;16.60;14.70;;;;;;;9.46;79.50;97851.95;124901;1099;64248;-82
2021/05/17 00:06:32;;;;;;;18.40;16.10;;;;;;;9.50;79.61;97845.41;124829;1105;64434;-83
2021/05/17 00:08:59;;;;;;;18.43;15.20;;;;;;;9.55;79.76;97840.56;124862;1100;64342;-82
2021/05/17 00:11:27;;;;;;;17.47;15.53;;;;;;;9.59;79.61;97825.22;124824;1104;64316;-83
2021/05/17 00:13:54;;;;;;;20.73;16.80;;;;;;;9.60;79.68;97819.75;124850;1099;64310;-83
2021/05/17 00:16:22;;;;;;;19.10;16.27;;;;;;;9.60;79.70;97819.75;124817;1098;64332;-83
2021/05/17 00:18:50;;;;;;;20.63;16.83;;;;;;;9.57;79.66;97817.34;124823;1104;64772;-84
2021/05/17 00:21:17;;;;;;;18.60;16.63;;;;;;;9.58;79.86;97812.87;124764;1100;64358;-83
2021/05/17 00:23:45;;;;;;;17.27;15.07;;;;;;;9.58;79.89;97815.53;124828;1104;64358;-83
2021/05/17 00:26:12;;;;;;;16.70;14.17;;;;;;;9.63;80.19;97813.34;124799;1104;64354;-83
2021/05/17 00:28:40;;;;;;;14.57;12.73;;;;;;;9.69;80.33;97812.86;124799;1105;64370;-83
2021/05/17 00:31:07;;;;;;;15.05;13.50;;;;;;;9.74;80.23;97812.45;124754;1104;64489;-82
2021/05/17 00:33:35;;;;;;;14.60;12.07;;;;;;;9.80;80.30;97802.16;124769;1104;64444;-83
2021/05/17 00:36:03;;;;;;;18.70;11.87;;;;;;;9.86;80.29;97806.97;124816;1104;64309;-83
2021/05/17 00:38:30;;;;;;;12.60;11.25;;;;;;;9.94;80.27;97811.65;124881;1100;64321;-83
2021/05/17 00:40:58;;;;;;;14.45;11.15;;;;;;;9.98;80.27;97810.44;124811;1104;64256;-83
2021/05/17 00:43:32;;;;;;;15.03;12.00;;;;;;;10.04;80.33;97809.91;124769;1099;64489;-82
2021/05/17 00:45:59;;;;;;;14.10;11.13;;;;;;;10.09;80.26;97805.05;124830;1104;64386;-81
2021/05/17 00:48:27;;;;;;;14.50;12.10;;;;;;;10.10;80.26;97805.89;124867;1104;64435;-83
2021/05/17 00:50:55;;;;;;;14.73;11.20;;;;;;;10.11;80.07;97800.45;124795;1098;64349;-83
2021/05/17 00:53:22;;;;;;;12.37;10.53;;;;;;;10.15;80.22;97798.36;124783;1104;64333;-84
2021/05/17 00:55:50;;;;;;;13.50;10.73;;;;;;;10.18;80.15;97802.58;124816;1105;64413;-84
2021/05/17 00:58:17;;;;;;;14.60;10.55;;;;;;;10.22;80.15;97790.72;124855;1104;64342;-84
2021/05/17 01:00:46;;;;;;;15.75;10.45;;;;;;;10.26;80.03;97808.94;124806;1100;64309;-83
2021/05/17 01:03:13;;;;;;;12.23;9.73;;;;;;;10.32;80.10;97810.27;124830;1104;64336;-84
2021/05/17 01:05:41;;;;;;;13.70;9.40;;;;;;;10.41;80.06;97813.98;124774;1105;64379;-82
2021/05/17 01:08:24;;;;;;;13.20;10.67;;;;;;;10.47;80.01;97808.13;124844;1100;64408;-83
2021/05/17 01:10:57;;;;;;;11.77;9.50;;;;;;;10.54;79.84;97806.63;124777;1104;64342;-83
2021/05/17 01:13:24;;;;;;;13.27;9.67;;;;;;;10.55;79.74;97803.82;124833;1104;64329;-84
2021/05/17 01:15:53;;;;;;;10.30;9.20;;;;;;;10.52;79.64;97801.42;124920;1104;64335;-82
2021/05/17 01:18:21;;;;;;;11.43;9.07;;;;;;;10.49;79.60;97798.19;124797;1100;64367;-83
2021/05/17 01:20:49;;;;;;;11.97;9.27;;;;;;;10.48;79.66;97797.35;124786;1105;64354;-83
2021/05/17 01:25:54;;;;;;;12.70;8.87;;;;;;;10.45;79.75;97800.28;124848;1098;64257;-82
2021/05/17 01:28:24;;;;;;;13.57;8.83;;;;;;;10.48;80.00;97805.34;124826;1104;64262;-84
2021/05/17 01:31:10;;;;;;;;;;;;;;;10.50;79.99;97792.71;124855;1104;64336;-83
2021/05/17 01:33:41;;;;;;;10.60;9.53;;;;;;;10.49;79.94;97793.70;124843;1104;64418;-83
2021/05/17 01:36:10;;;;;;;9.73;8.07;;;;;;;10.47;79.88;97794.81;124846;1104;64336;-83
2021/05/17 01:38:44;;;;;;;10.38;9.13;;;;;;;10.46;79.96;97790.47;124894;1104;64329;-83
2021/05/17 01:41:14;;;;;;;11.00;9.07;;;;;;;10.45;79.84;97796.75;124912;1098;64805;-83
2021/05/17 01:43:44;;;;;;;10.60;9.50;;;;;;;10.44;80.13;97795.08;124776;1099;64480;-85
2021/05/17 01:46:20;;;;;;;12.05;8.90;;;;;;;10.39;80.24;97802.61;124857;1104;64437;-83
2021/05/17 01:48:48;;;;;;;11.40;9.63;;;;;;;10.34;80.23;97797.67;124838;1104;64346;-83
2021/05/17 01:51:20;;;;;;;10.70;9.60;;;;;;;10.33;80.40;97786.18;124787;1099;64332;-83
2021/05/17 01:53:49;;;;;;;10.13;9.07;;;;;;;10.31;80.77;97787.28;124829;1104;64332;-83
2021/05/17 01:56:18;;;;;;;9.43;8.53;;;;;;;10.30;80.68;97785.61;124773;1100;64492;-83
2021/05/17 01:58:47;;;;;;;10.50;9.03;;;;;;;10.33;80.93;97785.34;124907;1100;64276;-83
2021/05/17 02:01:17;;;;;;;16.33;9.73;;;;;;;10.35;80.98;97788.73;124744;1100;64255;-82
2021/05/17 02:03:49;;;;;;;14.53;10.07;;;;;;;10.33;81.41;97785.34;124798;1104;64325;-83
2021/05/17 02:06:18;;;;;;;18.63;10.57;;;;;;;10.32;82.06;97780.97;124849;1104;64366;-83
2021/05/17 02:08:48;;;;;;;11.67;9.30;;;;;;;10.29;82.80;97774.13;124768;1100;64348;-83
2021/05/17 02:11:21;;;;;;;12.20;10.07;;;;;;;10.24;82.72;97784.28;124884;1104;64431;-83
2021/05/17 02:13:49;;;;;;;11.83;9.37;;;;;;;10.24;82.87;97794.06;124770;1104;64336;-83
2021/05/17 02:16:17;;;;;;;14.97;9.53;;;;;;;10.24;82.77;97808.25;124832;1105;64358;-83
2021/05/17 02:18:48;;;;;;;12.20;9.17;;;;;;;10.25;82.69;97809.09;124832;1099;64248;-83
2021/05/17 02:21:18;;;;;;;14.60;9.20;;;;;;;10.26;83.16;97806.27;124864;1104;64367;-83
2021/05/17 02:23:46;;;;;;;11.20;8.27;;;;;;;10.22;82.65;97820.84;124865;1105;64262;-84
2021/05/17 02:26:15;;;;;;;9.10;7.33;;;;;;;10.22;82.91;97817.34;124781;1100;64340;-83
2021/05/17 02:28:42;;;;;;;10.43;7.97;;;;;;;10.24;82.61;97816.23;124799;1099;64312;-81
2021/05/17 02:31:10;;;;;;;9.43;6.60;;;;;;;10.28;82.48;97804.37;124789;1097;64268;-82
2021/05/17 02:33:38;;;;;;;9.27;6.83;;;;;;;10.28;82.48;97782.23;124540;1100;64686;-83
2021/05/17 02:36:08;;;;;;;8.10;6.87;;;;;;;10.32;82.60;97775.65;124641;1104;64496;-83
2021/05/17 02:38:35;;;;;;;9.30;7.10;;;;;;;10.32;82.57;97775.65;124602;1104;64255;-82
2021/05/17 02:41:04;;;;;;;7.47;5.00;;;;;;;10.30;82.70;97786.45;124603;1104;64718;-83
2021/05/17 02:43:32;;;;;;;7.33;5.80;;;;;;;10.28;82.74;97798.20;124601;1104;64336;-82
2021/05/17 02:46:01;;;;;;;9.37;6.10;;;;;;;10.27;82.56;97796.50;124541;1104;64466;-82
2021/05/17 02:48:30;;;;;;;7.63;5.97;;;;;;;10.26;82.71;97802.78;124549;1100;64351;-83
2021/05/17 02:50:59;;;;;;;8.13;6.40;;;;;;;10.30;82.75;97812.23;124564;1105;64344;-83
2021/05/17 02:53:32;;;;;;;10.33;6.13;;;;;;;10.32;82.78;97813.80;124643;1099;64336;-82
2021/05/17 02:56:17;;;;;;;11.65;7.70;;;;;;;10.37;82.82;97807.22;124632;1100;64333;-82
2021/05/17 02:58:45;;;;;;;11.10;7.55;;;;;;;10.41;82.84;97796.19;124550;1104;64340;-82
2021/05/17 03:01:20;;;;;;;9.53;7.80;;;;;;;10.42;82.70;97795.20;124596;1105;64347;-82
2021/05/17 03:03:50;;;;;;;11.27;7.73;;;;;;;10.39;82.84;97805.27;124553;1104;64338;-84
2021/05/17 03:06:23;;;;;;;11.77;8.63;;;;;;;10.37;82.70;97802.73;124645;1105;64364;-83
2021/05/17 03:08:58;;;;;;;10.67;8.23;;;;;;;10.40;82.95;97790.97;124559;1104;64316;-83
2021/05/17 03:11:27;;;;;;;10.27;9.17;;;;;;;10.41;82.92;97796.19;124563;1104;64411;-83
2021/05/17 03:13:58;;;;;;;9.73;8.28;;;;;;;10.43;82.88;97799.56;124586;1104;64364;-82
2021/05/17 03:16:26;;;;;;;8.67;7.37;;;;;;;10.44;82.93;97803.06;124625;1099;64355;-83
2021/05/17 03:18:55;;;;;;;8.90;7.75;;;;;;;10.45;82.78;97804.74;124620;1104;64259;-84
2021/05/17 03:21:26;;;;;;;7.87;7.13;;;;;;;10.48;82.88;97805.34;124562;1104;64262;-83
2021/05/17 03:23:56;;;;;;;9.17;7.93;;;;;;;10.56;82.68;97820.67;124547;1100;64505;-83
2021/05/17 03:26:26;;;;;;;8.53;6.50;;;;;;;10.64;82.73;97806.70;124577;1104;64255;-84
2021/05/17 03:28:54;;;;;;;9.87;7.47;;;;;;;10.72;82.80;97812.20;124617;1100;64342;-83
2021/05/17 03:31:21;;;;;;;9.57;7.67;;;;;;;10.81;82.74;97810.55;124608;1104;64370;-83
2021/05/17 03:33:49;;;;;;;10.00;8.90;;;;;;;10.88;82.52;97817.05;124600;1104;64335;-83
2021/05/17 03:36:16;;;;;;;10.27;8.67;;;;;;;10.90;82.44;97818.61;124569;1104;64341;-83
2021/05/17 03:38:44;;;;;;;10.93;8.93;;;;;;;10.92;82.22;97815.78;124605;1104;64418;-83
2021/05/17 03:41:11;;;;;;;10.77;9.63;;;;;;;10.95;82.36;97821.71;124613;1104;64367;-83
2021/05/17 03:43:38;;;;;;;9.73;8.13;;;;;;;10.93;82.07;97821.00;124504;1104;64335;-83
2021/05/17 03:46:05;;;;;;;11.13;8.80;;;;;;;10.95;82.17;97812.84;124578;1104;64336;-83
2021/05/17 03:48:40;;;;;;;13.07;8.93;;;;;;;10.97;82.13;97811.73;124606;1104;64352;-84
2021/05/17 03:51:09;;;;;;;17.77;14.67;;;;;;;10.99;82.23;97815.12;124539;1104;64341;-83
2021/05/17 03:53:37;;;;;;;11.50;10.03;;;;;;;11.01;82.02;97815.00;124591;1105;64434;-82
2021/05/17 03:56:05;;;;;;;10.37;9.00;;;;;;;11.06;82.15;97811.91;124581;1099;64374;-82
2021/05/17 03:58:32;;;;;;;9.73;8.63;;;;;;;11.08;81.96;97801.95;124598;1100;64341;-82
2021/05/17 04:01:00;;;;;;;12.27;9.90;;;;;;;11.09;81.95;97816.99;124512;1104;64361;-83
2021/05/17 04:03:28;;;;;;;15.87;9.67;;;;;;;11.10;82.03;97808.84;124671;1099;64505;-83
2021/05/17 04:13:57;;;;;;;15.80;11.17;;;;;;;11.17;82.05;97811.83;124638;1104;64368;-83
2021/05/17 04:16:25;;;;;;;16.93;9.70;;;;;;;11.24;82.09;97822.78;124597;1099;64253;-83
2021/05/17 04:18:52;;;;;;;13.57;9.30;;;;;;;11.28;82.02;97827.71;124741;1104;64342;-83
2021/05/17 04:21:19;;;;;;;12.17;9.67;;;;;;;11.33;82.12;97832.64;124701;1105;64354;-83
2021/05/17 04:23:48;;;;;;;12.65;9.80;;;;;;;11.33;82.23;97817.48;124656;1099;64329;-83
2021/05/17 04:26:15;;;;;;;11.90;8.90;;;;;;;11.34;82.40;97813.82;124655;1100;64342;-83
2021/05/17 04:28:43;;;;;;;9.50;8.60;;;;;;;11.38;82.27;97817.91;124572;1105;64357;-84
2021/05/17 04:31:10;;;;;;;9.80;8.90;;;;;;;11.47;82.43;97816.24;124528;1104;64345;-83
2021/05/17 04:33:37;;;;;;;10.60;9.43;;;;;;;11.56;82.07;97819.93;124547;1099;64285;-84
2021/05/17 04:36:05;;;;;;;9.63;8.70;;;;;;;11.62;81.93;97819.38;124549;1100;64253;-83
2021/05/17 04:38:32;;;;;;;9.60;8.60;;;;;;;11.64;81.79;97820.08;124587;1100;64377;-84
2021/05/17 04:40:59;;;;;;;8.73;7.93;;;;;;;11.63;81.72;97823.71;124564;1099;64217;-83
2021/05/17 04:43:27;;;;;;;9.47;8.50;;;;;;;11.62;81.52;97820.20;124603;1104;64366;-82
2021/05/17 04:45:54;;;;;;;10.90;9.75;;;;;;;11.66;81.63;97823.43;124527;1104;64335;-82
2021/05/17 04:48:21;;;;;;;10.27;9.27;;;;;;;11.74;81.85;97826.28;124542;1104;64425;-82
2021/05/17 04:50:49;;;;;;;11.37;10.23;;;;;;;11.81;81.98;97835.39;124637;1098;64349;-83
2021/05/17 04:53:16;;;;;;;9.83;8.93;;;;;;;11.89;81.76;97831.23;124638;1105;64497;-83
2021/05/17 04:55:43;;;;;;;13.73;11.90;;;;;;;11.96;81.50;97832.36;124574;1105;64335;-83
2021/05/17 04:58:10;;;;;;;13.93;12.53;;;;;;;12.07;81.41;97825.05;124566;1099;64340;-84
2021/05/17 05:00:38;;;;;;;14.83;11.40;;;;;;;12.21;81.35;97821.09;124616;1104;64429;-83
2021/05/17 05:03:05;;;;;;;12.30;11.07;;;;;;;12.37;81.02;97819.67;124658;1099;64253;-84
2021/05/17 05:05:34;;;;;;;12.17;10.97;;;;;;;12.56;80.75;97818.80;124556;1099;64274;-83
2021/05/17 05:08:01;;;;;;;12.15;10.55;;;;;;;12.72;80.27;97819.89;124558;1104;64336;-83
2021/05/17 05:10:28;;;;;;;13.47;11.80;;;;;;;12.81;80.20;97820.84;124617;1105;64313;-83
2021/05/17 05:12:56;;;;;;;15.53;12.63;;;;;;;12.87;80.02;97819.41;124622;1099;64329;-83
2021/05/17 05:15:23;;;;;;;19.03;14.47;;;;;;;12.90;80.15;97819.12;124679;1104;64336;-83
2021/05/17 05:17:50;;;;;;;15.03;10.80;;;;;;;12.93;79.60;97808.16;124725;1099;64335;-84
2021/05/17 05:20:18;;;;;;;14.07;10.13;;;;;;;12.98;79.24;97813.91;124713;1099;64336;-83
2021/05/17 05:22:45;;;;;;;11.17;9.90;;;;;;;12.99;79.05;97809.39;124636;1104;64348;-83
2021/05/17 05:25:13;;;;;;;10.25;8.70;;;;;;;12.99;79.00;97812.07;124682;1105;64393;-86
2021/05/17 05:27:47;;;;;;;10.30;9.30;;;;;;;13.02;79.44;97817.13;124819;1104;64406;-85
2021/05/17 05:30:22;;;;;;;7.60;6.80;;;;;;;13.01;79.07;97810.09;125024;1104;64429;-84
2021/05/17 05:33:23;;;;;;;7.20;6.47;;;;;;;12.95;78.97;97808.83;124899;1104;64342;-84
2021/05/17 05:35:46;;;;;;;13.65;12.60;;;;;;;12.91;78.95;97805.61;125001;1099;64374;-83
2021/05/17 05:38:15;;;;;;;9.17;8.37;;;;;;;12.90;79.16;97811.97;124924;1099;64347;-83
2021/05/17 05:40:44;;;;;;;10.00;8.33;;;;;;;12.89;79.14;97810.26;124808;1099;64489;-83
2021/05/17 05:43:11;;;;;;;8.63;7.57;;;;;;;12.89;78.94;97812.93;124853;1104;64329;-83
2021/05/17 05:45:45;;;;;;;8.05;5.90;;;;;;;12.90;78.80;97817.31;124653;1104;64435;-83
2021/05/17 05:48:13;;;;;;;6.43;5.83;;;;;;;12.91;79.02;97813.64;125133;1104;64241;-84
2021/05/17 05:50:41;;;;;;;6.70;5.40;;;;;;;13.00;78.65;97821.77;125024;1105;64285;-82
2021/05/17 05:53:09;;;;;;;6.73;5.17;;;;;;;13.07;78.77;97818.36;125154;1099;64476;-83
2021/05/17 05:55:36;;;;;;;5.70;4.10;;;;;;;13.17;78.49;97818.33;125162;1105;64271;-83
2021/05/17 05:58:03;;;;;;;5.63;5.13;;;;;;;13.25;78.33;97823.77;125015;1104;64380;-82
2021/05/17 06:00:31;;;;;;;5.60;3.80;;;;;;;13.37;78.05;97814.56;125199;1099;64913;-83
2021/05/17 06:02:59;;;;;;;5.93;5.00;;;;;;;13.48;77.47;97823.39;125236;1099;64253;-82
2021/05/17 06:05:27;;;;;;;6.87;5.47;;;;;;;13.56;77.71;97820.80;125086;1104;64336;-82
2021/05/17 06:07:57;;;;;;;6.90;4.60;;;;;;;13.61;77.42;97810.48;124890;1104;64438;-83
2021/05/17 06:10:25;;;;;;;7.03;6.05;;;;;;;13.66;77.10;97818.07;124758;1100;64352;-82
2021/05/17 06:12:55;;;;;;;5.70;4.60;;;;;;;13.67;76.80;97817.94;124876;1104;64367;-83
2021/05/17 06:15:24;;;;;;;8.75;5.65;;;;;;;13.71;76.93;97821.14;124719;1104;64345;-83
2021/05/17 06:17:52;;;;;;;7.53;4.87;;;;;;;13.75;76.96;97818.02;124552;1104;64448;-82
2021/05/17 06:20:20;;;;;;;7.25;5.20;;;;;;;13.86;77.28;97816.11;124815;1104;64416;-83
2021/05/17 06:22:50;;;;;;;7.30;5.40;;;;;;;13.92;76.99;97818.17;124523;1104;64647;-83
2021/05/17 06:25:17;;;;;;;;;;;;;;;13.98;76.87;97801.48;124614;1104;64310;-83
2021/05/17 06:27:47;;;;;;;10.17;6.77;;;;;;;14.04;76.88;97801.72;124630;1105;64766;-83
2021/05/17 06:30:16;;;;;;;7.00;6.10;;;;;;;14.15;76.63;97806.00;124649;1104;64361;-83
2021/05/17 06:32:45;;;;;;;7.73;5.25;;;;;;;14.20;75.98;97808.22;124661;1100;64341;-83
2021/05/17 06:35:15;;;;;;;12.00;8.80;;;;;;;14.25;76.30;97808.60;124619;1105;64340;-84
2021/05/17 06:37:42;;;;;;;;;;;;;;;14.32;75.87;97806.13;124724;1104;64358;-83
2021/05/17 06:40:11;;;;;;;6.30;4.70;;;;;;;14.35;75.39;97800.45;124659;1104;64255;-83
2021/05/17 06:42:39;;;;;;;9.83;6.45;;;;;;;14.40;75.19;97793.65;124571;1099;64473;-83
2021/05/17 06:45:07;;;;;;;8.13;6.30;;;;;;;14.42;75.32;97794.31;124662;1104;64506;-83
2021/05/17 06:47:35;;;;;;;6.90;5.30;;;;;;;14.49;75.25;97803.42;124622;1104;64272;-82
2021/05/17 06:50:09;;;;;;;6.53;5.77;;;;;;;14.58;75.39;97788.25;124611;1100;64352;-83
2021/05/17 06:52:36;;;;;;;9.75;6.10;;;;;;;14.69;74.79;97792.51;124631;1099;64285;-83
2021/05/17 06:55:10;;;;;;;7.63;5.50;;;;;;;14.72;74.64;97792.22;124647;1099;64345;-83
2021/05/17 07:00:07;;;;;;;7.40;6.60;;;;;;;15.00;74.43;97786.65;124531;1104;64332;-82
2021/05/17 07:02:36;;;;;;;6.85;4.58;;;;;;;15.11;74.04;97791.73;124617;1099;64338;-84
2021/05/17 07:05:05;;;;;;;6.48;5.78;;;;;;;15.22;74.52;97787.91;124606;1104;64348;-80
2021/05/17 07:12:53;;;;;;;6.53;5.43;;;;;;;15.33;73.63;97783.11;124633;1100;64344;-80
2021/05/17 07:15:21;;;;;;;6.10;5.07;;;;;;;15.36;73.63;97784.63;124616;1104;64799;-80
2021/05/17 07:17:48;;;;;;;5.63;5.00;;;;;;;15.47;73.60;97786.17;124619;1098;64336;-80
2021/05/17 07:20:16;;;;;;;5.75;4.40;;;;;;;15.64;73.55;97778.98;124570;1104;64403;-80
2021/05/17 07:25:29;;;;;;;6.17;5.27;;;;;;;15.96;72.33;97770.19;124546;1098;64338;-81
2021/05/17 07:27:56;;;;;;;6.60;5.87;;;;;;;16.09;72.34;97775.91;124540;1100;64335;-81
2021/05/17 07:30:23;;;;;;;7.80;6.20;;;;;;;16.18;71.33;97771.36;124585;1104;64345;-80
2021/05/17 07:32:50;;;;;;;7.53;6.40;;;;;;;16.21;71.73;97763.78;124565;1104;64367;-80
2021/05/17 07:35:18;;;;;;;7.20;5.80;;;;;;;16.29;71.11;97757.57;124626;1099;64457;-81
2021/05/17 07:37:46;;;;;;;7.77;5.67;;;;;;;16.33;71.04;97758.09;124565;1104;64367;-81
2021/05/17 07:40:14;;;;;;;6.35;5.75;;;;;;;16.29;71.02;97759.42;124621;1099;64424;-80
2021/05/17 07:42:41;;;;;;;6.95;5.45;;;;;;;16.32;70.66;97754.54;124628;1104;64335;-81
2021/05/17 07:45:09;;;;;;;7.17;5.63;;;;;;;16.40;70.83;97756.38;124520;1104;64429;-83
2021/05/17 07:47:36;;;;;;;7.40;5.70;;;;;;;16.36;70.56;97758.58;124530;1104;64903;-82
2021/05/17 07:50:04;;;;;;;6.60;5.87;;;;;;;16.32;70.35;97751.02;124645;1098;64328;-81
2021/05/17 07:52:31;;;;;;;5.93;5.30;;;;;;;16.33;70.44;97740.11;124598;1098;64797;-81
2021/05/17 07:54:59;;;;;;;7.27;5.00;;;;;;;16.40;70.03;97741.11;124592;1100;64333;-81
2021/05/17 07:57:26;;;;;;;6.03;5.00;;;;;;;16.43;70.31;97739.93;124576;1104;64493;-80
2021/05/17 07:59:54;;;;;;;8.20;5.35;;;;;;;16.49;69.59;97743.78;124589;1100;64336;-80
2021/05/17 08:02:21;;;;;;;5.30;4.80;;;;;;;16.62;69.51;97744.92;124601;1099;64252;-81
2021/05/17 08:04:51;;;;;;;5.65;4.80;;;;;;;16.77;69.68;97745.09;124622;1104;64329;-81
2021/05/17 08:07:19;;;;;;;6.13;5.53;;;;;;;16.88;69.87;97742.03;124584;1104;64345;-81
2021/05/17 08:09:46;;;;;;;5.53;4.97;;;;;;;16.95;69.57;97746.70;124636;1099;64400;-80
2021/05/17 08:12:16;;;;;;;7.37;6.57;;;;;;;16.93;69.49;97749.59;124547;1105;64495;-80
2021/05/17 08:14:44;;;;;;;5.67;4.93;;;;;;;16.88;69.09;97747.41;124594;1104;64358;-81
2021/05/17 08:17:11;;;;;;;8.17;5.70;;;;;;;16.78;69.40;97751.31;124599;1098;64412;-82
2021/05/17 08:19:39;;;;;;;7.70;5.60;;;;;;;16.71;69.75;97758.35;124579;1104;64337;-82
2021/05/17 08:22:06;;;;;;;4.70;4.30;;;;;;;16.59;69.57;97755.20;124591;1104;64363;-81
2021/05/17 08:24:34;;;;;;;6.37;5.60;;;;;;;16.50;70.17;97759.73;124650;1104;64338;-79
2021/05/17 08:27:05;;;;;;;5.20;4.65;;;;;;;16.45;70.23;97752.17;124555;1098;64432;-83
2021/05/17 08:29:33;;;;;;;5.43;4.37;;;;;;;16.46;70.15;97753.03;124559;1104;64284;-80
2021/05/17 08:32:03;;;;;;;6.27;5.63;;;;;;;16.45;70.45;97744.09;124610;1104;64641;-81
2021/05/17 08:34:30;;;;;;;6.27;5.63;;;;;;;16.53;70.36;97739.73;124623;1104;64313;-80
2021/05/17 08:36:58;;;;;;;6.57;5.67;;;;;;;16.62;70.33;97744.92;124603;1100;64409;-79
2021/05/17 08:39:26;;;;;;;6.63;5.37;;;;;;;16.77;70.22;97736.13;124564;1104;64335;-81
2021/05/17 08:41:56;;;;;;;6.97;6.27;;;;;;;16.88;69.69;97739.34;124545;1098;64310;-80
2021/05/17 08:44:25;;;;;;;6.80;6.00;;;;;;;16.91;69.07;97742.70;124567;1104;64281;-80
2021/05/17 08:46:52;;;;;;;6.57;5.90;;;;;;;16.92;68.95;97747.89;124552;1104;64766;-80
2021/05/17 08:49:21;;;;;;;6.83;6.13;;;;;;;16.98;69.23;97751.73;124619;1104;64451;-81
2021/05/17 08:51:50;;;;;;;7.50;6.80;;;;;;;17.03;69.11;97747.50;124531;1105;64277;-81
2021/05/17 08:54:17;;;;;;;8.10;7.30;;;;;;;16.95;69.38;97744.84;124551;1100;64285;-81
2021/05/17 08:56:47;;;;;;;8.67;7.20;;;;;;;16.90;69.20;97736.45;124533;1104;64361;-81
2021/05/17 08:59:16;;;;;;;10.23;9.20;;;;;;;16.82;69.66;97739.17;124594;1104;64354;-81
2021/05/17 09:01:44;;;;;;;13.05;11.73;;;;;;;16.67;69.44;97739.03;124609;1104;64364;-80
2021/05/17 09:04:14;;;;;;;8.93;8.07;;;;;;;16.59;70.20;97742.58;124551;1100;64389;-80
2021/05/17 09:06:44;;;;;;;8.60;7.80;;;;;;;16.54;70.27;97739.56;124615;1104;64345;-81
2021/05/17 09:09:28;;;;;;;9.87;7.83;;;;;;;16.44;70.49;97738.91;124701;1099;64335;-80
2021/05/17 09:12:03;;;;;;;9.77;8.20;;;;;;;16.31;70.65;97743.97;124613;1104;64396;-81
2021/05/17 09:14:33;;;;;;;8.47;6.93;;;;;;;16.35;71.41;97746.16;124590;1098;64336;-80
2021/05/17 09:17:06;;;;;;;7.23;6.43;;;;;;;16.47;71.06;97743.94;124629;1104;64368;-80
2021/05/17 09:19:36;;;;;;;8.65;7.10;;;;;;;16.52;71.18;97746.95;124673;1099;64284;-80
2021/05/17 09:22:20;;;;;;;9.00;7.85;;;;;;;16.58;71.13;97748.95;124589;1105;64402;-80
2021/05/17 09:24:53;;;;;;;7.97;6.97;;;;;;;16.58;71.08;97754.33;124622;1104;64420;-79
2021/05/17 09:27:25;;;;;;;7.55;5.85;;;;;;;16.50;71.01;97758.89;124597;1099;64335;-80
2021/05/17 09:29:54;;;;;;;7.75;6.85;;;;;;;16.27;70.91;97756.89;124662;1099;64814;-80
2021/05/17 09:32:22;;;;;;;6.25;5.65;;;;;;;16.17;71.20;97761.63;124628;1099;64333;-80
2021/05/17 09:34:59;;;;;;;7.23;6.53;;;;;;;16.06;71.12;97753.88;124599;1104;64319;-81
2021/05/17 09:37:28;;;;;;;7.33;6.43;;;;;;;15.95;71.80;97765.80;124632;1104;64393;-81
2021/05/17 09:39:55;;;;;;;8.47;6.77;;;;;;;15.90;72.23;97763.61;124661;1104;64499;-81
2021/05/17 09:42:24;;;;;;;9.57;7.33;;;;;;;15.92;72.61;97760.77;124631;1100;64468;-80
2021/05/17 09:44:53;;;;;;;9.80;7.13;;;;;;;15.93;72.38;97757.06;124669;1104;64364;-81
2021/05/17 09:47:22;;;;;;;9.07;7.67;;;;;;;15.87;72.17;97742.45;124555;1104;64256;-82
2021/05/17 09:49:56;;;;;;;9.20;8.30;;;;;;;15.81;72.38;97740.44;124498;1104;64339;-81
2021/05/17 09:52:29;;;;;;;8.90;7.77;;;;;;;15.74;72.55;97737.56;124557;1100;64336;-81
2021/05/17 09:55:08;;;;;;;9.97;6.77;;;;;;;15.65;72.68;97733.17;124609;1105;64377;-80
2021/05/17 09:57:38;;;;;;;7.20;6.60;;;;;;;15.59;72.58;97717.73;124614;1098;64365;-80
2021/05/17 10:00:14;;;;;;;10.50;6.60;;;;;;;15.56;72.78;97726.95;124662;1099;64335;-80
2021/05/17 10:02:47;;;;;;;8.37;5.67;;;;;;;15.51;72.70;97731.98;124606;1104;64388;-80
2021/05/17 10:05:31;;;;;;;9.37;6.50;;;;;;;15.52;72.55;97730.13;124565;1100;64472;-80
2021/05/17 10:08:03;;;;;;;10.03;8.17;;;;;;;15.53;72.82;97735.35;124644;1099;64309;-80
2021/05/17 10:10:32;;;;;;;11.23;7.77;;;;;;;15.64;72.66;97728.82;124623;1100;64412;-79
2021/05/17 10:13:01;;;;;;;10.90;6.20;;;;;;;15.65;72.64;97724.28;124519;1100;64429;-80
2021/05/17 10:15:33;;;;;;;8.23;5.93;;;;;;;15.61;72.98;97729.13;124548;1099;64345;-81
2021/05/17 10:18:01;;;;;;;7.83;5.47;;;;;;;15.66;72.96;97724.09;124469;1104;64410;-80
2021/05/17 10:20:29;;;;;;;7.57;6.10;;;;;;;15.62;73.09;97725.45;124497;1104;64445;-80
2021/05/17 10:22:57;;;;;;;7.67;5.63;;;;;;;15.58;73.21;97724.92;124446;1105;64342;-80
2021/05/17 10:25:27;;;;;;;6.23;5.63;;;;;;;15.63;73.50;97728.97;124486;1104;64416;-80
2021/05/17 10:28:00;;;;;;;7.33;5.63;;;;;;;15.65;73.38;97730.48;124499;1104;64332;-80
2021/05/17 10:30:33;;;;;;;7.33;4.90;;;;;;;15.65;73.51;97730.48;124703;1099;64282;-80
2021/05/17 10:33:03;;;;;;;6.20;5.00;;;;;;;15.65;72.78;97732.34;124444;1104;64333;-80
2021/05/17 10:35:32;;;;;;;6.73;5.40;;;;;;;15.69;73.07;97731.02;124635;1104;64368;-80
2021/05/17 10:38:26;;;;;;;5.70;4.67;;;;;;;15.71;72.58;97731.70;124596;1100;64258;-80
2021/05/17 10:41:25;;;;;;;5.53;4.43;;;;;;;15.77;72.86;97733.70;124459;1100;64341;-80
2021/05/17 10:44:12;;;;;;;9.95;5.65;;;;;;;15.82;73.43;97735.91;124513;1104;64349;-80
2021/05/17 10:46:50;;;;;;;4.75;4.25;;;;;;;15.84;72.65;97729.36;124554;1098;64335;-80
2021/05/17 10:49:28;;;;;;;4.80;3.57;;;;;;;15.87;72.38;97728.19;124559;1104;64422;-81
2021/05/17 10:52:06;;;;;;;5.57;3.80;;;;;;;15.90;72.87;97735.91;124585;1105;64429;-80
2021/05/17 10:54:36;;;;;;;4.63;3.00;;;;;;;15.92;72.32;97734.73;124551;1104;64438;-81
2021/05/17 10:57:27;;;;;;;3.15;2.25;;;;;;;15.92;72.37;97732.05;124536;1104;64336;-80
2021/05/17 11:02:44;;;;;;;4.20;3.60;;;;;;;15.91;72.14;97726.86;124676;1104;64324;-80
2021/05/17 11:05:19;;;;;;;5.77;4.63;;;;;;;15.85;72.47;97732.88;124691;1104;64332;-80
2021/05/17 11:07:46;;;;;;;5.37;3.83;;;;;;;15.84;72.55;97732.05;124655;1104;64346;-82
2021/05/17 11:10:17;;;;;;;6.50;3.90;;;;;;;15.83;72.64;97729.55;124590;1100;64473;-81
2021/05/17 11:12:44;;;;;;;4.33;3.93;;;;;;;15.82;72.52;97733.22;124679;1099;64330;-80
2021/05/17 11:15:12;;;;;;;4.75;3.80;;;;;;;15.75;72.32;97733.06;124707;1105;64339;-80
2021/05/17 11:17:52;;;;;;;4.77;3.90;;;;;;;15.58;72.47;97727.61;124559;1099;64279;-80
2021/05/17 11:20:38;;;;;;;3.55;3.23;;;;;;;15.42;72.94;97730.27;124472;1104;64294;-81
2021/05/17 11:23:18;;;;;;;4.07;2.97;;;;;;;15.32;72.99;97730.44;124466;1105;64463;-79
2021/05/17 11:25:52;;;;;;;5.17;3.37;;;;;;;15.26;73.10;97732.92;124526;1105;64259;-79
2021/05/17 11:28:37;;;;;;;4.40;3.20;;;;;;;15.21;73.18;97724.52;124509;1104;64253;-81
2021/05/17 11:31:28;;;;;;;7.73;6.33;;;;;;;15.17;73.54;97725.86;124519;1105;64290;-80
2021/05/17 11:34:02;;;;;;;6.63;5.27;;;;;;;15.10;73.66;97723.80;124488;1105;64601;-81
2021/05/17 11:36:36;;;;;;;5.67;4.07;;;;;;;15.05;73.48;97719.94;124499;1105;64380;-80
2021/05/17 11:39:17;;;;;;;7.33;4.23;;;;;;;14.89;74.28;97721.55;124512;1105;64342;-80
2021/05/17 11:41:56;;;;;;;6.00;4.10;;;;;;;14.78;74.37;97726.37;124555;1104;64259;-80
2021/05/17 11:47:19;;;;;;;7.33;4.70;;;;;;;14.61;75.10;97728.97;124488;1100;64387;-81
2021/05/17 11:49:48;;;;;;;8.50;5.37;;;;;;;14.61;75.04;97720.06;124522;1098;64273;-78
2021/05/17 11:52:23;;;;;;;6.80;5.20;;;;;;;14.58;75.78;97723.91;124497;1098;64365;-79
2021/05/17 11:55:02;;;;;;;5.77;4.30;;;;;;;14.53;75.29;97725.38;124491;1099;64336;-79
2021/05/17 11:57:32;;;;;;;4.67;3.70;;;;;;;14.48;75.10;97718.64;124495;1098;64288;-80
2021/05/17 12:00:13;;;;;;;4.67;4.23;;;;;;;14.37;75.67;97721.56;124485;1099;64359;-79
2021/05/17 12:02:45;;;;;;;4.90;4.40;;;;;;;14.32;76.00;97720.36;124480;1100;64365;-80